sensor_id;sensor_type;location;lat;lon;timestamp;pressure;altitude;pressure_sealevel;temperature;humidity
40117;BME280;25829;50.228;18.936;2023-06-22T00:00:12;98718.97;;;19.55;70.58
40117;BME280;25829;50.228;18.936;2023-06-22T00:03:12;98720.34;;;19.57;70.55
40117;BME280;25829;50.228;18.936;2023-06-22T00:06:13;98718.47;;;19.58;70.83
40117;BME280;25829;50.228;18.936;2023-06-22T00:09:14;98713.06;;;19.53;71.02
40117;BME280;25829;50.228;18.936;2023-06-22T00:12:14;98706.91;;;19.47;70.89
40117;BME280;25829;50.228;18.936;2023-06-22T00:15:15;98721.88;;;19.43;71.26
40117;BME280;25829;50.228;18.936;2023-06-22T00:18:16;98723.41;;;19.34;71.56
40117;BME280;25829;50.228;18.936;2023-06-22T00:21:17;98741.03;;;19.30;71.75
40117;BME280;25829;50.228;18.936;2023-06-22T00:24:21;98742.13;;;19.34;71.84
40117;BME280;25829;50.228;18.936;2023-06-22T00:27:22;98744.00;;;19.33;71.85
40117;BME280;25829;50.228;18.936;2023-06-22T00:30:23;98745.84;;;19.28;71.94
40117;BME280;25829;50.228;18.936;2023-06-22T00:33:23;98754.66;;;19.28;72.09
40117;BME280;25829;50.228;18.936;2023-06-22T00:36:24;98743.44;;;19.31;72.03
40117;BME280;25829;50.228;18.936;2023-06-22T00:39:25;98738.66;;;19.33;71.99
40117;BME280;25829;50.228;18.936;2023-06-22T00:42:26;98734.09;;;19.34;72.03
40117;BME280;25829;50.228;18.936;2023-06-22T00:45:27;98724.19;;;19.29;72.08
40117;BME280;25829;50.228;18.936;2023-06-22T00:48:28;98735.41;;;19.26;72.21
40117;BME280;25829;50.228;18.936;2023-06-22T00:51:28;98729.53;;;19.29;72.26
40117;BME280;25829;50.228;18.936;2023-06-22T00:54:29;98727.97;;;19.33;72.05
40117;BME280;25829;50.228;18.936;2023-06-22T00:57:30;98733.03;;;19.35;71.91
40117;BME280;25829;50.228;18.936;2023-06-22T01:00:31;98736.50;;;19.35;71.94
40117;BME280;25829;50.228;18.936;2023-06-22T01:03:35;98732.78;;;19.37;71.79
40117;BME280;25829;50.228;18.936;2023-06-22T01:06:44;98733.03;;;19.35;71.84
40117;BME280;25829;50.228;18.936;2023-06-22T01:13:45;98721.53;;;19.34;72.24
40117;BME280;25829;50.228;18.936;2023-06-22T01:16:47;98725.00;;;19.35;71.93
40117;BME280;25829;50.228;18.936;2023-06-22T01:20:19;98721.03;;;19.38;72.61
40117;BME280;25829;50.228;18.936;2023-06-22T01:23:42;98722.59;;;19.33;72.00
40117;BME280;25829;50.228;18.936;2023-06-22T01:27:25;98725.50;;;19.27;72.54
40117;BME280;25829;50.228;18.936;2023-06-22T01:30:29;98724.59;;;19.11;72.37
40117;BME280;25829;50.228;18.936;2023-06-22T01:33:35;98729.09;;;19.05;72.56
40117;BME280;25829;50.228;18.936;2023-06-22T01:36:50;98731.28;;;19.08;72.71
40117;BME280;25829;50.228;18.936;2023-06-22T01:39:52;98731.00;;;19.10;72.27
40117;BME280;25829;50.228;18.936;2023-06-22T01:43:00;98729.91;;;19.06;72.50
40117;BME280;25829;50.228;18.936;2023-06-22T01:46:04;98738.72;;;19.06;72.56
40117;BME280;25829;50.228;18.936;2023-06-22T01:49:08;98736.28;;;19.00;72.57
40117;BME280;25829;50.228;18.936;2023-06-22T01:52:11;98732.22;;;18.97;72.72
40117;BME280;25829;50.228;18.936;2023-06-22T01:55:12;98728.75;;;18.97;72.87
40117;BME280;25829;50.228;18.936;2023-06-22T01:58:14;98735.69;;;18.93;72.73
40117;BME280;25829;50.228;18.936;2023-06-22T02:01:20;98730.84;;;18.90;72.93
40117;BME280;25829;50.228;18.936;2023-06-22T02:08:05;98737.94;;;18.79;73.46
40117;BME280;25829;50.228;18.936;2023-06-22T02:11:09;98741.41;;;18.79;73.04
40117;BME280;25829;50.228;18.936;2023-06-22T02:14:12;98749.44;;;18.79;72.94
40117;BME280;25829;50.228;18.936;2023-06-22T02:17:14;98750.25;;;18.80;73.08
40117;BME280;25829;50.228;18.936;2023-06-22T02:20:17;98764.66;;;18.79;73.12
40117;BME280;25829;50.228;18.936;2023-06-22T02:23:18;98752.88;;;18.75;73.15
40117;BME280;25829;50.228;18.936;2023-06-22T02:26:19;98759.50;;;18.67;72.98
40117;BME280;25829;50.228;18.936;2023-06-22T02:29:20;98754.56;;;18.54;73.18
40117;BME280;25829;50.228;18.936;2023-06-22T02:32:20;98762.00;;;18.52;73.36
40117;BME280;25829;50.228;18.936;2023-06-22T02:35:21;98757.72;;;18.51;73.35
40117;BME280;25829;50.228;18.936;2023-06-22T02:38:22;98775.63;;;18.50;73.46
40117;BME280;25829;50.228;18.936;2023-06-22T02:41:26;98780.47;;;18.53;73.21
40117;BME280;25829;50.228;18.936;2023-06-22T02:44:27;98781.28;;;18.54;73.28
40117;BME280;25829;50.228;18.936;2023-06-22T02:47:28;98779.91;;;18.51;73.15
40117;BME280;25829;50.228;18.936;2023-06-22T02:50:29;98777.22;;;18.51;73.31
40117;BME280;25829;50.228;18.936;2023-06-22T02:53:31;98784.44;;;18.51;72.97
40117;BME280;25829;50.228;18.936;2023-06-22T02:56:35;98792.16;;;18.47;73.20
40117;BME280;25829;50.228;18.936;2023-06-22T02:59:37;98797.50;;;18.47;72.90
40117;BME280;25829;50.228;18.936;2023-06-22T03:02:47;98802.03;;;18.47;73.04
40117;BME280;25829;50.228;18.936;2023-06-22T03:05:48;98801.78;;;18.48;73.29
40117;BME280;25829;50.228;18.936;2023-06-22T03:08:50;98803.94;;;18.51;73.25
40117;BME280;25829;50.228;18.936;2023-06-22T03:11:51;98796.75;;;18.52;73.09
40117;BME280;25829;50.228;18.936;2023-06-22T03:14:53;98802.34;;;18.50;73.14
40117;BME280;25829;50.228;18.936;2023-06-22T03:17:54;98810.91;;;18.52;73.19
40117;BME280;25829;50.228;18.936;2023-06-22T03:20:57;98824.03;;;18.54;73.23
40117;BME280;25829;50.228;18.936;2023-06-22T03:23:58;98831.25;;;18.53;73.22
40117;BME280;25829;50.228;18.936;2023-06-22T03:26:59;98819.75;;;18.53;73.42
40117;BME280;25829;50.228;18.936;2023-06-22T03:30:00;98832.81;;;18.49;73.47
40117;BME280;25829;50.228;18.936;2023-06-22T03:33:01;98820.94;;;18.40;74.15
40117;BME280;25829;50.228;18.936;2023-06-22T03:36:02;98809.00;;;18.26;74.57
40117;BME280;25829;50.228;18.936;2023-06-22T03:39:03;98814.28;;;18.21;74.77
40117;BME280;25829;50.228;18.936;2023-06-22T03:42:04;98814.06;;;18.22;74.73
40117;BME280;25829;50.228;18.936;2023-06-22T03:45:09;98816.53;;;18.29;74.54
40117;BME280;25829;50.228;18.936;2023-06-22T03:48:10;98818.44;;;18.33;74.67
40117;BME280;25829;50.228;18.936;2023-06-22T03:51:11;98816.34;;;18.35;74.82
40117;BME280;25829;50.228;18.936;2023-06-22T03:54:12;98812.53;;;18.31;75.03
40117;BME280;25829;50.228;18.936;2023-06-22T03:57:12;98813.56;;;18.25;75.45
40117;BME280;25829;50.228;18.936;2023-06-22T04:28:40;98840.84;;;19.03;75.51
40117;BME280;25829;50.228;18.936;2023-06-22T04:35:11;98836.16;;;19.16;74.92
40117;BME280;25829;50.228;18.936;2023-06-22T04:38:13;98845.59;;;19.23;74.73
40117;BME280;25829;50.228;18.936;2023-06-22T04:41:13;98836.03;;;19.32;74.54
40117;BME280;25829;50.228;18.936;2023-06-22T04:47:33;98834.25;;;19.43;74.57
40117;BME280;25829;50.228;18.936;2023-06-22T04:50:33;98842.59;;;19.52;74.47
40117;BME280;25829;50.228;18.936;2023-06-22T04:53:40;98853.63;;;19.61;74.57
40117;BME280;25829;50.228;18.936;2023-06-22T04:56:41;98854.25;;;19.68;74.30
40117;BME280;25829;50.228;18.936;2023-06-22T05:04:19;98842.03;;;19.82;74.30
40117;BME280;25829;50.228;18.936;2023-06-22T05:07:33;98856.84;;;19.95;74.38
40117;BME280;25829;50.228;18.936;2023-06-22T05:26:24;98852.78;;;20.45;74.70
40117;BME280;25829;50.228;18.936;2023-06-22T05:36:53;98870.38;;;20.98;74.37
40117;BME280;25829;50.228;18.936;2023-06-22T05:40:03;98858.31;;;21.06;74.08
40117;BME280;25829;50.228;18.936;2023-06-22T05:43:04;98852.44;;;21.09;73.48
40117;BME280;25829;50.228;18.936;2023-06-22T05:46:05;98861.84;;;21.22;73.57
40117;BME280;25829;50.228;18.936;2023-06-22T05:49:13;98863.47;;;21.38;73.02
40117;BME280;25829;50.228;18.936;2023-06-22T05:52:44;98867.47;;;21.56;73.09
40117;BME280;25829;50.228;18.936;2023-06-22T05:55:45;98871.25;;;21.65;72.23
40117;BME280;25829;50.228;18.936;2023-06-22T06:06:08;98875.78;;;22.01;71.26
40117;BME280;25829;50.228;18.936;2023-06-22T06:09:14;98885.16;;;22.08;70.03
40117;BME280;25829;50.228;18.936;2023-06-22T06:15:34;98894.00;;;22.14;69.37
40117;BME280;25829;50.228;18.936;2023-06-22T06:18:35;98894.56;;;22.11;68.65
40117;BME280;25829;50.228;18.936;2023-06-22T06:21:37;98888.13;;;22.02;68.90
40117;BME280;25829;50.228;18.936;2023-06-22T06:28:07;98901.84;;;22.00;69.21
40117;BME280;25829;50.228;18.936;2023-06-22T06:31:09;98898.06;;;22.06;69.25
40117;BME280;25829;50.228;18.936;2023-06-22T06:34:09;98893.44;;;22.22;69.04
40117;BME280;25829;50.228;18.936;2023-06-22T06:41:03;98890.78;;;22.82;67.95
40117;BME280;25829;50.228;18.936;2023-06-22T06:52:31;98888.25;;;23.74;65.08
40117;BME280;25829;50.228;18.936;2023-06-22T06:55:40;98888.94;;;23.90;63.63
40117;BME280;25829;50.228;18.936;2023-06-22T06:58:41;98888.63;;;23.92;63.18
40117;BME280;25829;50.228;18.936;2023-06-22T07:01:42;98880.78;;;24.00;63.47
40117;BME280;25829;50.228;18.936;2023-06-22T07:04:45;98877.97;;;24.11;62.66
40117;BME280;25829;50.228;18.936;2023-06-22T07:07:45;98887.31;;;24.18;62.60
40117;BME280;25829;50.228;18.936;2023-06-22T07:10:46;98883.63;;;24.33;62.45
40117;BME280;25829;50.228;18.936;2023-06-22T07:13:50;98892.28;;;24.54;61.03
40117;BME280;25829;50.228;18.936;2023-06-22T07:16:53;98893.03;;;24.60;61.25
40117;BME280;25829;50.228;18.936;2023-06-22T07:19:54;98894.75;;;24.74;61.87
40117;BME280;25829;50.228;18.936;2023-06-22T07:22:55;98886.94;;;24.92;61.08
40117;BME280;25829;50.228;18.936;2023-06-22T07:25:55;98891.19;;;24.98;60.65
40117;BME280;25829;50.228;18.936;2023-06-22T07:28:56;98892.50;;;25.00;60.47
40117;BME280;25829;50.228;18.936;2023-06-22T07:31:57;98891.09;;;25.03;58.57
40117;BME280;25829;50.228;18.936;2023-06-22T07:35:01;98897.81;;;25.06;57.78
40117;BME280;25829;50.228;18.936;2023-06-22T07:38:04;98889.13;;;25.09;58.13
40117;BME280;25829;50.228;18.936;2023-06-22T07:41:05;98903.66;;;25.13;57.09
40117;BME280;25829;50.228;18.936;2023-06-22T07:44:06;98896.94;;;25.10;56.79
40117;BME280;25829;50.228;18.936;2023-06-22T07:47:07;98902.34;;;25.10;57.05
40117;BME280;25829;50.228;18.936;2023-06-22T07:50:08;98897.97;;;25.14;56.57
40117;BME280;25829;50.228;18.936;2023-06-22T07:53:09;98910.06;;;25.17;56.01
40117;BME280;25829;50.228;18.936;2023-06-22T07:56:10;98907.09;;;25.18;55.73
40117;BME280;25829;50.228;18.936;2023-06-22T07:59:11;98908.63;;;25.24;56.34
40117;BME280;25829;50.228;18.936;2023-06-22T08:02:12;98906.97;;;25.29;56.23
40117;BME280;25829;50.228;18.936;2023-06-22T08:05:18;98904.47;;;25.32;54.64
40117;BME280;25829;50.228;18.936;2023-06-22T08:08:28;98911.56;;;25.28;53.65
40117;BME280;25829;50.228;18.936;2023-06-22T08:11:28;98909.94;;;25.27;55.36
40117;BME280;25829;50.228;18.936;2023-06-22T08:14:30;98905.28;;;25.33;55.00
40117;BME280;25829;50.228;18.936;2023-06-22T08:17:30;98921.91;;;25.40;54.80
40117;BME280;25829;50.228;18.936;2023-06-22T08:20:32;98923.94;;;25.48;54.38
40117;BME280;25829;50.228;18.936;2023-06-22T08:23:36;98923.78;;;25.58;54.76
40117;BME280;25829;50.228;18.936;2023-06-22T08:26:37;98920.53;;;25.75;54.74
40117;BME280;25829;50.228;18.936;2023-06-22T08:29:39;98932.91;;;25.95;54.33
40117;BME280;25829;50.228;18.936;2023-06-22T09:03:02;98925.09;;;30.72;48.54
40117;BME280;25829;50.228;18.936;2023-06-22T09:06:05;98934.72;;;31.20;46.77
40117;BME280;25829;50.228;18.936;2023-06-22T09:09:07;98934.13;;;31.56;46.11
40117;BME280;25829;50.228;18.936;2023-06-22T09:12:08;98934.59;;;32.03;46.01
40117;BME280;25829;50.228;18.936;2023-06-22T09:15:12;98936.72;;;32.56;44.36
40117;BME280;25829;50.228;18.936;2023-06-22T09:18:14;98927.91;;;32.87;44.73
40117;BME280;25829;50.228;18.936;2023-06-22T09:21:20;98919.00;;;33.30;44.47
40117;BME280;25829;50.228;18.936;2023-06-22T09:28:09;98916.75;;;33.48;38.23
40117;BME280;25829;50.228;18.936;2023-06-22T09:31:10;98907.19;;;33.54;42.12
40117;BME280;25829;50.228;18.936;2023-06-22T09:34:11;98897.25;;;33.78;40.40
40117;BME280;25829;50.228;18.936;2023-06-22T09:37:13;98890.69;;;33.51;41.10
40117;BME280;25829;50.228;18.936;2023-06-22T09:40:19;98897.03;;;33.55;41.15
40117;BME280;25829;50.228;18.936;2023-06-22T09:43:21;98897.41;;;33.53;40.76
40117;BME280;25829;50.228;18.936;2023-06-22T09:46:25;98887.34;;;33.57;40.34
40117;BME280;25829;50.228;18.936;2023-06-22T10:06:02;98882.75;;;31.58;39.61
40117;BME280;25829;50.228;18.936;2023-06-22T10:16:58;98874.03;;;30.48;41.87
40117;BME280;25829;50.228;18.936;2023-06-22T10:19:58;98871.88;;;29.77;39.65
40117;BME280;25829;50.228;18.936;2023-06-22T10:22:59;98884.91;;;29.19;42.20
40117;BME280;25829;50.228;18.936;2023-06-22T10:26:00;98876.13;;;28.87;42.81
40117;BME280;25829;50.228;18.936;2023-06-22T10:29:02;98873.22;;;28.75;42.64
40117;BME280;25829;50.228;18.936;2023-06-22T10:37:05;98857.50;;;28.46;42.21
40117;BME280;25829;50.228;18.936;2023-06-22T10:48:55;98866.44;;;28.38;43.77
40117;BME280;25829;50.228;18.936;2023-06-22T11:17:06;98843.16;;;27.97;43.53
40117;BME280;25829;50.228;18.936;2023-06-22T11:20:07;98845.56;;;27.98;44.06
40117;BME280;25829;50.228;18.936;2023-06-22T11:23:17;98837.25;;;27.95;43.28
40117;BME280;25829;50.228;18.936;2023-06-22T11:26:18;98840.41;;;27.88;43.13
40117;BME280;25829;50.228;18.936;2023-06-22T11:29:18;98830.66;;;27.87;43.39
40117;BME280;25829;50.228;18.936;2023-06-22T11:32:19;98832.41;;;27.83;43.04
40117;BME280;25829;50.228;18.936;2023-06-22T11:35:20;98830.31;;;27.80;43.39
40117;BME280;25829;50.228;18.936;2023-06-22T11:38:21;98833.00;;;27.71;43.75
40117;BME280;25829;50.228;18.936;2023-06-22T11:41:22;98830.91;;;27.68;43.60
40117;BME280;25829;50.228;18.936;2023-06-22T11:44:23;98834.03;;;27.62;43.53
40117;BME280;25829;50.228;18.936;2023-06-22T11:47:23;98828.44;;;27.58;43.54
40117;BME280;25829;50.228;18.936;2023-06-22T11:50:24;98834.03;;;27.62;44.19
40117;BME280;25829;50.228;18.936;2023-06-22T11:53:26;98821.78;;;27.64;43.93
40117;BME280;25829;50.228;18.936;2023-06-22T11:56:51;98815.56;;;27.64;43.93
40117;BME280;25829;50.228;18.936;2023-06-22T12:00:24;98821.66;;;27.69;44.19
40117;BME280;25829;50.228;18.936;2023-06-22T12:03:34;98811.66;;;27.78;42.93
40117;BME280;25829;50.228;18.936;2023-06-22T12:06:38;98803.38;;;27.83;43.17
40117;BME280;25829;50.228;18.936;2023-06-22T12:09:41;98804.16;;;27.84;43.02
40117;BME280;25829;50.228;18.936;2023-06-22T12:12:45;98802.41;;;27.79;43.72
40117;BME280;25829;50.228;18.936;2023-06-22T12:15:46;98787.28;;;27.78;43.76
40117;BME280;25829;50.228;18.936;2023-06-22T12:18:54;98797.97;;;27.83;44.25
40117;BME280;25829;50.228;18.936;2023-06-22T12:21:55;98794.16;;;27.85;44.22
40117;BME280;25829;50.228;18.936;2023-06-22T12:24:56;98785.06;;;27.89;43.66
40117;BME280;25829;50.228;18.936;2023-06-22T12:27:56;98781.22;;;27.90;43.45
40117;BME280;25829;50.228;18.936;2023-06-22T12:30:57;98782.34;;;27.89;43.74
40117;BME280;25829;50.228;18.936;2023-06-22T12:33:58;98772.19;;;27.95;44.18
40117;BME280;25829;50.228;18.936;2023-06-22T12:36:59;98766.09;;;27.98;43.78
40117;BME280;25829;50.228;18.936;2023-06-22T12:40:00;98757.03;;;28.02;43.99
40117;BME280;25829;50.228;18.936;2023-06-22T12:43:04;98763.59;;;28.10;43.70
40117;BME280;25829;50.228;18.936;2023-06-22T12:46:04;98756.56;;;28.09;43.05
40117;BME280;25829;50.228;18.936;2023-06-22T12:49:05;98754.31;;;28.11;42.58
40117;BME280;25829;50.228;18.936;2023-06-22T12:52:45;98757.38;;;28.10;42.11
40117;BME280;25829;50.228;18.936;2023-06-22T13:05:13;98738.88;;;28.20;43.13
40117;BME280;25829;50.228;18.936;2023-06-22T13:08:14;98742.53;;;28.24;43.09
40117;BME280;25829;50.228;18.936;2023-06-22T13:11:21;98737.00;;;28.29;42.84
40117;BME280;25829;50.228;18.936;2023-06-22T13:14:24;98730.91;;;28.33;43.08
40117;BME280;25829;50.228;18.936;2023-06-22T13:17:55;98725.81;;;28.40;42.55
40117;BME280;25829;50.228;18.936;2023-06-22T13:20:56;98727.88;;;28.43;43.01
40117;BME280;25829;50.228;18.936;2023-06-22T13:23:58;98726.94;;;28.47;42.54
40117;BME280;25829;50.228;18.936;2023-06-22T13:26:59;98724.88;;;28.44;42.84
40117;BME280;25829;50.228;18.936;2023-06-22T13:30:00;98719.91;;;28.38;42.19
40117;BME280;25829;50.228;18.936;2023-06-22T13:33:01;98723.44;;;28.29;42.39
40117;BME280;25829;50.228;18.936;2023-06-22T13:36:02;98720.56;;;28.26;42.54
40117;BME280;25829;50.228;18.936;2023-06-22T13:39:04;98709.81;;;28.21;42.60
40117;BME280;25829;50.228;18.936;2023-06-22T13:42:05;98714.91;;;28.22;42.48
40117;BME280;25829;50.228;18.936;2023-06-22T13:45:07;98716.03;;;28.21;42.50
40117;BME280;25829;50.228;18.936;2023-06-22T13:48:08;98715.59;;;28.19;41.11
40117;BME280;25829;50.228;18.936;2023-06-22T13:51:12;98712.22;;;28.14;41.86
40117;BME280;25829;50.228;18.936;2023-06-22T13:54:20;98713.50;;;28.16;41.55
40117;BME280;25829;50.228;18.936;2023-06-22T13:57:43;98705.19;;;28.21;41.83
40117;BME280;25829;50.228;18.936;2023-06-22T14:00:44;98709.19;;;28.24;42.45
40117;BME280;25829;50.228;18.936;2023-06-22T14:03:49;98705.19;;;28.21;41.02
40117;BME280;25829;50.228;18.936;2023-06-22T14:06:51;98700.25;;;28.15;41.61
40117;BME280;25829;50.228;18.936;2023-06-22T14:09:52;98701.84;;;28.16;41.72
40117;BME280;25829;50.228;18.936;2023-06-22T14:12:53;98698.81;;;28.17;41.96
40117;BME280;25829;50.228;18.936;2023-06-22T14:15:54;98704.25;;;28.17;42.21
40117;BME280;25829;50.228;18.936;2023-06-22T14:18:54;98702.31;;;28.18;42.41
40117;BME280;25829;50.228;18.936;2023-06-22T14:21:56;98700.25;;;28.15;42.69
40117;BME280;25829;50.228;18.936;2023-06-22T14:24:57;98703.44;;;28.17;42.66
40117;BME280;25829;50.228;18.936;2023-06-22T14:27:59;98704.72;;;28.19;42.65
40117;BME280;25829;50.228;18.936;2023-06-22T14:31:02;98701.34;;;28.22;42.38
40117;BME280;25829;50.228;18.936;2023-06-22T14:34:03;98700.09;;;28.20;42.86
40117;BME280;25829;50.228;18.936;2023-06-22T14:37:09;98689.72;;;28.13;43.01
40117;BME280;25829;50.228;18.936;2023-06-22T14:40:59;98693.03;;;28.01;43.27
40117;BME280;25829;50.228;18.936;2023-06-22T14:44:00;98692.72;;;27.94;43.00
40117;BME280;25829;50.228;18.936;2023-06-22T14:47:01;98688.41;;;27.93;42.35
40117;BME280;25829;50.228;18.936;2023-06-22T14:50:02;98689.84;;;27.91;42.62
40117;BME280;25829;50.228;18.936;2023-06-22T14:53:03;98692.88;;;27.89;41.70
40117;BME280;25829;50.228;18.936;2023-06-22T14:56:04;98684.75;;;27.89;41.68
40117;BME280;25829;50.228;18.936;2023-06-22T14:59:05;98680.13;;;27.90;41.43
40117;BME280;25829;50.228;18.936;2023-06-22T15:02:06;98681.41;;;27.92;41.48
40117;BME280;25829;50.228;18.936;2023-06-22T15:05:07;98671.34;;;27.93;41.65
40117;BME280;25829;50.228;18.936;2023-06-22T15:16:43;98670.72;;;27.96;41.74
40117;BME280;25829;50.228;18.936;2023-06-22T15:19:46;98667.69;;;27.97;41.92
40117;BME280;25829;50.228;18.936;2023-06-22T15:22:47;98665.13;;;28.01;41.97
40117;BME280;25829;50.228;18.936;2023-06-22T15:25:48;98664.81;;;28.02;41.21
40117;BME280;25829;50.228;18.936;2023-06-22T15:28:49;98663.22;;;28.01;41.03
40117;BME280;25829;50.228;18.936;2023-06-22T15:31:51;98656.19;;;28.00;41.26
40117;BME280;25829;50.228;18.936;2023-06-22T15:34:52;98658.91;;;28.00;41.13
40117;BME280;25829;50.228;18.936;2023-06-22T15:37:54;98653.31;;;27.97;41.57
40117;BME280;25829;50.228;18.936;2023-06-22T15:40:55;98657.31;;;27.91;40.75
40117;BME280;25829;50.228;18.936;2023-06-22T15:43:55;98660.97;;;27.86;40.92
40117;BME280;25829;50.228;18.936;2023-06-22T15:46:56;98657.47;;;27.86;40.70
40117;BME280;25829;50.228;18.936;2023-06-22T15:49:57;98656.69;;;27.85;40.23
40117;BME280;25829;50.228;18.936;2023-06-22T15:52:58;98656.69;;;27.85;40.13
40117;BME280;25829;50.228;18.936;2023-06-22T15:55:58;98663.19;;;27.84;40.24
40117;BME280;25829;50.228;18.936;2023-06-22T15:58:59;98651.25;;;27.85;40.74
40117;BME280;25829;50.228;18.936;2023-06-22T16:02:00;98643.59;;;27.87;41.06
40117;BME280;25829;50.228;18.936;2023-06-22T16:05:01;98647.41;;;27.86;41.13
40117;BME280;25829;50.228;18.936;2023-06-22T16:08:04;98651.41;;;27.89;41.24
40117;BME280;25829;50.228;18.936;2023-06-22T16:11:11;98649.81;;;27.88;40.98
40117;BME280;25829;50.228;18.936;2023-06-22T16:14:12;98646.94;;;27.84;40.84
40117;BME280;25829;50.228;18.936;2023-06-22T16:20:50;98642.78;;;27.87;41.10
40117;BME280;25829;50.228;18.936;2023-06-22T16:23:51;98634.50;;;27.83;40.94
40117;BME280;25829;50.228;18.936;2023-06-22T16:26:52;98626.53;;;27.78;40.82
40117;BME280;25829;50.228;18.936;2023-06-22T16:29:56;98630.16;;;27.73;40.88
40117;BME280;25829;50.228;18.936;2023-06-22T16:33:00;98628.91;;;27.71;41.18
40117;BME280;25829;50.228;18.936;2023-06-22T16:36:07;98627.63;;;27.68;40.90
40117;BME280;25829;50.228;18.936;2023-06-22T16:39:08;98623.94;;;27.64;41.26
40117;BME280;25829;50.228;18.936;2023-06-22T16:42:09;98630.78;;;27.62;41.35
40117;BME280;25829;50.228;18.936;2023-06-22T16:45:15;98624.84;;;27.59;41.55
40117;BME280;25829;50.228;18.936;2023-06-22T16:48:16;98617.69;;;27.55;41.23
40117;BME280;25829;50.228;18.936;2023-06-22T16:51:19;98614.00;;;27.51;41.08
40117;BME280;25829;50.228;18.936;2023-06-22T16:54:31;98620.84;;;27.48;41.18
40117;BME280;25829;50.228;18.936;2023-06-22T16:57:34;98621.19;;;27.47;41.25
40117;BME280;25829;50.228;18.936;2023-06-22T17:00:35;98609.34;;;27.43;41.60
40117;BME280;25829;50.228;18.936;2023-06-22T17:03:43;98609.69;;;27.41;41.18
40117;BME280;25829;50.228;18.936;2023-06-22T17:06:51;98617.47;;;27.43;41.52
40117;BME280;25829;50.228;18.936;2023-06-22T17:09:55;98612.41;;;27.41;41.28
40117;BME280;25829;50.228;18.936;2023-06-22T17:12:57;98599.19;;;27.40;41.44
40117;BME280;25829;50.228;18.936;2023-06-22T17:15:59;98598.19;;;27.35;41.60
40117;BME280;25829;50.228;18.936;2023-06-22T17:19:01;98602.03;;;27.34;42.04
40117;BME280;25829;50.228;18.936;2023-06-22T17:22:05;98598.03;;;27.32;41.98
40117;BME280;25829;50.228;18.936;2023-06-22T17:25:10;98594.34;;;27.28;42.15
40117;BME280;25829;50.228;18.936;2023-06-22T17:28:11;98599.31;;;27.26;42.48
40117;BME280;25829;50.228;18.936;2023-06-22T17:31:11;98594.81;;;27.21;43.01
40117;BME280;25829;50.228;18.936;2023-06-22T17:34:14;98596.56;;;27.17;43.07
40117;BME280;25829;50.228;18.936;2023-06-22T17:37:18;98598.28;;;27.13;43.25
40117;BME280;25829;50.228;18.936;2023-06-22T17:40:44;98591.59;;;27.10;43.87
40117;BME280;25829;50.228;18.936;2023-06-22T17:43:46;98589.00;;;27.05;44.37
40117;BME280;25829;50.228;18.936;2023-06-22T17:47:00;98581.00;;;27.00;44.74
40117;BME280;25829;50.228;18.936;2023-06-22T17:50:08;98580.84;;;26.97;45.00
40117;BME280;25829;50.228;18.936;2023-06-22T17:53:10;98571.41;;;26.85;45.20
40117;BME280;25829;50.228;18.936;2023-06-22T18:00:10;98556.84;;;26.73;45.48
40117;BME280;25829;50.228;18.936;2023-06-22T18:03:14;98555.88;;;26.69;45.69
40117;BME280;25829;50.228;18.936;2023-06-22T18:06:15;98564.94;;;26.64;45.88
40117;BME280;25829;50.228;18.936;2023-06-22T18:09:17;98570.47;;;26.59;46.04
40117;BME280;25829;50.228;18.936;2023-06-22T18:12:18;98558.50;;;26.51;46.04
40117;BME280;25829;50.228;18.936;2023-06-22T18:15:22;98553.03;;;26.42;45.90
40117;BME280;25829;50.228;18.936;2023-06-22T18:18:25;98550.59;;;26.32;46.04
40117;BME280;25829;50.228;18.936;2023-06-22T18:21:26;98550.69;;;26.27;46.45
40117;BME280;25829;50.228;18.936;2023-06-22T18:24:33;98543.19;;;26.24;46.55
40117;BME280;25829;50.228;18.936;2023-06-22T18:27:36;98547.28;;;26.13;46.66
40117;BME280;25829;50.228;18.936;2023-06-22T18:30:41;98553.28;;;26.10;46.76
40117;BME280;25829;50.228;18.936;2023-06-22T18:33:42;98549.44;;;26.02;46.88
40117;BME280;25829;50.228;18.936;2023-06-22T18:36:48;98539.84;;;25.96;47.02
40117;BME280;25829;50.228;18.936;2023-06-22T18:39:52;98554.91;;;25.88;47.21
40117;BME280;25829;50.228;18.936;2023-06-22T18:42:59;98551.78;;;25.81;47.56
40117;BME280;25829;50.228;18.936;2023-06-22T18:46:29;98548.72;;;25.74;48.17
40117;BME280;25829;50.228;18.936;2023-06-22T18:49:32;98557.34;;;25.62;47.89
40117;BME280;25829;50.228;18.936;2023-06-22T19:13:46;98584.88;;;25.09;48.70
40117;BME280;25829;50.228;18.936;2023-06-22T19:16:59;98590.09;;;25.06;49.22
40117;BME280;25829;50.228;18.936;2023-06-22T19:20:03;98599.88;;;25.02;49.02
40117;BME280;25829;50.228;18.936;2023-06-22T19:23:23;98597.78;;;24.98;49.46
40117;BME280;25829;50.228;18.936;2023-06-22T19:26:25;98592.69;;;24.97;49.42
40117;BME280;25829;50.228;18.936;2023-06-22T19:29:27;98592.97;;;24.95;49.46
40117;BME280;25829;50.228;18.936;2023-06-22T19:32:27;98600.88;;;24.92;49.32
40117;BME280;25829;50.228;18.936;2023-06-22T19:35:29;98598.88;;;24.84;49.77
40117;BME280;25829;50.228;18.936;2023-06-22T19:38:40;98587.38;;;24.78;50.16
40117;BME280;25829;50.228;18.936;2023-06-22T19:41:41;98589.06;;;24.74;50.35
40117;BME280;25829;50.228;18.936;2023-06-22T19:44:43;98591.03;;;24.68;50.24
40117;BME280;25829;50.228;18.936;2023-06-22T19:47:45;98582.81;;;24.60;50.42
40117;BME280;25829;50.228;18.936;2023-06-22T19:50:45;98576.44;;;24.56;50.83
40117;BME280;25829;50.228;18.936;2023-06-22T19:53:46;98577.81;;;24.53;50.83
40117;BME280;25829;50.228;18.936;2023-06-22T19:56:49;98573.00;;;24.50;50.81
40117;BME280;25829;50.228;18.936;2023-06-22T19:59:52;98580.09;;;24.46;50.81